createdAt,value
2023-04-27T00:00:59.870Z,954.5285
2023-04-27T00:02:01.542Z,954.5162
2023-04-27T00:03:03.461Z,954.4985
2023-04-27T00:04:05.061Z,954.4846
2023-04-27T00:05:06.480Z,954.4900
2023-04-27T00:06:08.663Z,954.4900
2023-04-27T00:07:09.706Z,954.4792
2023-04-27T00:08:11.357Z,954.4554
2023-04-27T00:09:13.276Z,954.4400
2023-04-27T00:10:14.606Z,954.4377
2023-04-27T00:11:16.396Z,954.4308
2023-04-27T00:12:18.028Z,954.4254
2023-04-27T00:13:19.654Z,954.4138
2023-04-27T00:14:21.234Z,954.4130
2023-04-27T00:15:22.872Z,954.4131
2023-04-27T00:16:25.639Z,954.4208
2023-04-27T00:17:26.302Z,954.4323
2023-04-27T00:18:27.903Z,954.4254
2023-04-27T00:19:29.462Z,954.4146
2023-04-27T00:20:31.245Z,954.3954
2023-04-27T00:21:32.739Z,954.3915
2023-04-27T00:22:34.522Z,954.3923
2023-04-27T00:23:36.111Z,954.3962
2023-04-27T00:24:37.747Z,954.3923
2023-04-27T00:25:39.426Z,954.3854
2023-04-27T00:26:40.993Z,954.3715
2023-04-27T00:27:42.601Z,954.3492
2023-04-27T00:28:44.423Z,954.3292
2023-04-27T00:29:45.996Z,954.3123
2023-04-27T00:30:47.613Z,954.3108
2023-04-27T00:31:49.212Z,954.3092
2023-04-27T00:32:50.965Z,954.3115
2023-04-27T00:33:52.495Z,954.3130
2023-04-27T00:34:54.222Z,954.3177
2023-04-27T00:35:55.816Z,954.3138
2023-04-27T00:36:57.440Z,954.3077
2023-04-27T00:37:59.176Z,954.2869
2023-04-27T00:39:00.723Z,954.2654
2023-04-27T00:40:02.479Z,954.2500
2023-04-27T00:41:04.129Z,954.2423
2023-04-27T00:42:05.702Z,954.2269
2023-04-27T00:43:07.415Z,954.2208
2023-04-27T00:44:09.077Z,954.2146
2023-04-27T00:45:10.768Z,954.2161
2023-04-27T00:46:12.405Z,954.2146
2023-04-27T00:47:14.022Z,954.1954
2023-04-27T00:48:15.677Z,954.1846
2023-04-27T00:49:17.338Z,954.1792
2023-04-27T00:50:19.091Z,954.1769
2023-04-27T00:51:20.616Z,954.1738
2023-04-27T00:52:22.252Z,954.1638
2023-04-27T00:53:23.914Z,954.1500
2023-04-27T00:54:25.536Z,954.1392
2023-04-27T00:55:27.245Z,954.1254
2023-04-27T00:56:28.824Z,954.1130
2023-04-27T00:57:30.668Z,954.1230
2023-04-27T00:58:32.132Z,954.1177
2023-04-27T00:59:33.781Z,954.1262
2023-04-27T01:00:35.673Z,954.1161
2023-04-27T01:01:37.151Z,954.1192
2023-04-27T01:02:38.909Z,954.1161
2023-04-27T01:03:40.602Z,954.1000
2023-04-27T01:04:42.101Z,954.0885
2023-04-27T01:05:43.693Z,954.0808
2023-04-27T01:06:45.333Z,954.0785
2023-04-27T01:07:47.057Z,954.0931
2023-04-27T01:08:48.592Z,954.1046
2023-04-27T01:09:50.297Z,954.1200
2023-04-27T01:10:51.896Z,954.1238
2023-04-27T01:11:53.815Z,954.1161
2023-04-27T01:12:55.366Z,954.1008
2023-04-27T01:13:56.956Z,954.1177
2023-04-27T01:14:58.531Z,954.1400
2023-04-27T01:16:00.192Z,954.1516
2023-04-27T01:17:01.986Z,954.1608
2023-04-27T01:18:03.556Z,954.1885
2023-04-27T01:19:05.098Z,954.2192
2023-04-27T01:20:06.855Z,954.2308
2023-04-27T01:21:09.343Z,954.2377
2023-04-27T01:22:10.129Z,954.2585
2023-04-27T01:23:11.753Z,954.2831
2023-04-27T01:24:13.437Z,954.2961
2023-04-27T01:25:15.021Z,954.3154
2023-04-27T01:26:16.630Z,954.3323
2023-04-27T01:27:18.361Z,954.3439
2023-04-27T01:28:19.964Z,954.3492
2023-04-27T01:29:22.605Z,954.3553
2023-04-27T01:30:23.236Z,954.3585
2023-04-27T01:31:25.230Z,954.3538
2023-04-27T01:32:26.597Z,954.3615
2023-04-27T01:33:28.149Z,954.3730
2023-04-27T01:34:29.872Z,954.3738
2023-04-27T01:35:31.430Z,954.3831
2023-04-27T01:36:33.170Z,954.3777
2023-04-27T01:37:34.724Z,954.3661
2023-04-27T01:38:36.407Z,954.3454
2023-04-27T01:39:38.097Z,954.3461
2023-04-27T01:40:39.726Z,954.3553
2023-04-27T01:41:41.455Z,954.3546
2023-04-27T01:42:42.982Z,954.3646
2023-04-27T01:43:44.776Z,954.3685
2023-04-27T01:44:46.660Z,954.3762
2023-04-27T01:45:47.962Z,954.3877
2023-04-27T01:46:49.724Z,954.3823
2023-04-27T01:47:51.241Z,954.3862
2023-04-27T01:48:52.897Z,954.3931
2023-04-27T01:49:54.613Z,954.4008
2023-04-27T01:50:57.175Z,954.4023
2023-04-27T01:51:57.926Z,954.4008
2023-04-27T01:52:59.528Z,954.4008
2023-04-27T01:54:01.119Z,954.4084
2023-04-27T01:55:02.778Z,954.4246
2023-04-27T01:56:04.434Z,954.4330
2023-04-27T01:57:06.076Z,954.4446
2023-04-27T01:58:07.751Z,954.4569
2023-04-27T01:59:10.643Z,954.4846
2023-04-27T02:00:10.999Z,954.5162
2023-04-27T02:01:12.704Z,954.5400
2023-04-27T02:02:14.339Z,954.5638
2023-04-27T02:03:16.065Z,954.5977
2023-04-27T02:04:17.916Z,954.6215
2023-04-27T02:05:19.264Z,954.6308
2023-04-27T02:06:20.895Z,954.6439
2023-04-27T02:07:23.481Z,954.6469
2023-04-27T02:08:24.173Z,954.6439
2023-04-27T02:09:25.936Z,954.6439
2023-04-27T02:10:27.568Z,954.6346
2023-04-27T02:11:29.219Z,954.6270
2023-04-27T02:12:30.753Z,954.6300
2023-04-27T02:13:32.344Z,954.6262
2023-04-27T02:14:34.133Z,954.6254
2023-04-27T02:15:35.691Z,954.6185
2023-04-27T02:16:37.478Z,954.6130
2023-04-27T02:17:39.904Z,954.6046
2023-04-27T02:18:40.639Z,954.6038
2023-04-27T02:19:42.298Z,954.6000
2023-04-27T02:20:44.340Z,954.5708
2023-04-27T02:21:46.593Z,954.5485
2023-04-27T02:22:48.101Z,954.5177
2023-04-27T02:23:48.777Z,954.4846
2023-04-27T02:24:50.531Z,954.4677
2023-04-27T02:25:52.123Z,954.4470
2023-04-27T02:26:53.772Z,954.4577
2023-04-27T02:27:55.400Z,954.4554
2023-04-27T02:28:57.049Z,954.4385
2023-04-27T02:29:58.723Z,954.4300
2023-04-27T02:31:00.354Z,954.4200
2023-04-27T02:32:02.138Z,954.4323
2023-04-27T02:33:03.641Z,954.4346
2023-04-27T02:34:05.297Z,954.4115
2023-04-27T02:35:06.953Z,954.4084
2023-04-27T02:36:08.552Z,954.3931
2023-04-27T02:37:10.189Z,954.3646
2023-04-27T02:38:11.851Z,954.3646
2023-04-27T02:39:13.712Z,954.3600
2023-04-27T02:40:15.134Z,954.3516
2023-04-27T02:41:16.850Z,954.3446
2023-04-27T02:42:18.401Z,954.3431
2023-04-27T02:43:20.097Z,954.3277
2023-04-27T02:44:21.711Z,954.3223
2023-04-27T02:45:23.431Z,954.3254
2023-04-27T02:46:25.088Z,954.3146
2023-04-27T02:47:26.678Z,954.3030
2023-04-27T02:48:28.319Z,954.2946
2023-04-27T02:49:29.932Z,954.2915
2023-04-27T02:50:31.612Z,954.3030
2023-04-27T02:51:33.242Z,954.3054
2023-04-27T02:52:34.905Z,954.2961
2023-04-27T02:53:36.474Z,954.3062
2023-04-27T02:54:38.156Z,954.2992
2023-04-27T02:55:39.884Z,954.2930
2023-04-27T02:56:41.529Z,954.3054
2023-04-27T02:57:43.043Z,954.3200
2023-04-27T02:58:44.758Z,954.3185
2023-04-27T02:59:46.373Z,954.3015
2023-04-27T03:00:48.940Z,954.3123
2023-04-27T03:01:49.718Z,954.3170
2023-04-27T03:02:51.519Z,954.3092
2023-04-27T03:03:53.179Z,954.3138
2023-04-27T03:04:54.598Z,954.3038
2023-04-27T03:05:56.315Z,954.2992
2023-04-27T03:06:57.917Z,954.3054
2023-04-27T03:07:59.613Z,954.3115
2023-04-27T03:09:01.194Z,954.3223
2023-04-27T03:10:02.828Z,954.3347
2023-04-27T03:11:04.542Z,954.3246
2023-04-27T03:12:06.192Z,954.3130
2023-04-27T03:13:07.772Z,954.2892
2023-04-27T03:14:09.368Z,954.2770
2023-04-27T03:15:11.098Z,954.2700
2023-04-27T03:16:13.601Z,954.2692
2023-04-27T03:17:14.629Z,954.2770
2023-04-27T03:18:16.006Z,954.2700
2023-04-27T03:19:17.599Z,954.2877
2023-04-27T03:20:19.326Z,954.3000
2023-04-27T03:21:20.945Z,954.3030
2023-04-27T03:22:22.638Z,954.3077
2023-04-27T03:23:24.236Z,954.3192
2023-04-27T03:24:25.883Z,954.3246
2023-04-27T03:25:27.527Z,954.3315
2023-04-27T03:26:29.301Z,954.3454
2023-04-27T03:27:30.837Z,954.3600
2023-04-27T03:28:32.552Z,954.3638
2023-04-27T03:29:34.038Z,954.3808
2023-04-27T03:30:35.784Z,954.3854
2023-04-27T03:31:37.461Z,954.3977
2023-04-27T03:32:39.091Z,954.4016
2023-04-27T03:33:40.686Z,954.4061
2023-04-27T03:34:42.300Z,954.4100
2023-04-27T03:35:44.010Z,954.4100
2023-04-27T03:36:45.678Z,954.4115
2023-04-27T03:37:47.333Z,954.4138
2023-04-27T03:38:48.877Z,954.4185
2023-04-27T03:39:50.569Z,954.4161
2023-04-27T03:40:52.288Z,954.4215
2023-04-27T03:41:53.927Z,954.4315
2023-04-27T03:42:56.645Z,954.4338
2023-04-27T03:43:57.257Z,954.4330
2023-04-27T03:44:58.867Z,954.4192
2023-04-27T03:46:00.569Z,954.4031
2023-04-27T03:47:02.096Z,954.3969
2023-04-27T03:48:03.881Z,954.4054
2023-04-27T03:49:05.435Z,954.4131
2023-04-27T03:50:07.680Z,954.4230
2023-04-27T03:51:08.715Z,954.4454
2023-04-27T03:52:10.385Z,954.4446
2023-04-27T03:53:12.057Z,954.4462
2023-04-27T03:54:13.720Z,954.4477
2023-04-27T03:55:15.308Z,954.4716
2023-04-27T03:56:16.973Z,954.5054
2023-04-27T03:57:18.560Z,954.5239
2023-04-27T03:58:20.279Z,954.5369
2023-04-27T03:59:21.875Z,954.5530
2023-04-27T04:00:23.584Z,954.5515
2023-04-27T04:01:25.226Z,954.5485
2023-04-27T04:02:26.975Z,954.5654
2023-04-27T04:03:28.728Z,954.5623
2023-04-27T04:04:30.337Z,954.5369
2023-04-27T04:05:31.814Z,954.5270
2023-04-27T04:06:33.368Z,954.5192
2023-04-27T04:07:35.044Z,954.5247
2023-04-27T04:08:36.632Z,954.5162
2023-04-27T04:09:38.708Z,954.5208
2023-04-27T04:10:40.133Z,954.5485
2023-04-27T04:11:41.618Z,954.5654
2023-04-27T04:12:43.229Z,954.5908
2023-04-27T04:13:44.880Z,954.5954
2023-04-27T04:14:46.578Z,954.6031
2023-04-27T04:15:48.269Z,954.6031
2023-04-27T04:16:49.816Z,954.6100
2023-04-27T04:17:51.476Z,954.6061
2023-04-27T04:18:53.086Z,954.6154
2023-04-27T04:19:54.757Z,954.6115
2023-04-27T04:20:56.459Z,954.6061
2023-04-27T04:21:58.007Z,954.5977
2023-04-27T04:22:59.704Z,954.6130
2023-04-27T04:24:01.331Z,954.6215
2023-04-27T04:25:03.036Z,954.6246
2023-04-27T04:26:04.613Z,954.6230
2023-04-27T04:27:06.267Z,954.6346
2023-04-27T04:28:07.865Z,954.6408
2023-04-27T04:29:10.992Z,954.6400
2023-04-27T04:30:11.140Z,954.6415
2023-04-27T04:31:12.930Z,954.6462
2023-04-27T04:32:14.499Z,954.6500
2023-04-27T04:33:16.061Z,954.6277
2023-04-27T04:34:17.816Z,954.6154
2023-04-27T04:35:19.371Z,954.5939
2023-04-27T04:36:21.112Z,954.5731
2023-04-27T04:37:23.172Z,954.5508
2023-04-27T04:38:24.374Z,954.5453
2023-04-27T04:39:25.938Z,954.5554
2023-04-27T04:40:27.587Z,954.5530
2023-04-27T04:41:29.279Z,954.5530
2023-04-27T04:42:30.957Z,954.5385
2023-04-27T04:43:32.526Z,954.5262
2023-04-27T04:44:34.199Z,954.5269
2023-04-27T04:45:35.814Z,954.5215
2023-04-27T04:46:37.734Z,954.5131
2023-04-27T04:47:39.793Z,954.5162
2023-04-27T04:48:40.752Z,954.5170
2023-04-27T04:49:42.420Z,954.5361
2023-04-27T04:50:44.092Z,954.5500
2023-04-27T04:51:45.801Z,954.5654
2023-04-27T04:52:47.400Z,954.5792
2023-04-27T04:53:49.033Z,954.5777
2023-04-27T04:54:50.698Z,954.5777
2023-04-27T04:55:52.265Z,954.5939
2023-04-27T04:56:53.994Z,954.6077
2023-04-27T04:57:55.643Z,954.6185
2023-04-27T04:58:57.249Z,954.6138
2023-04-27T04:59:59.635Z,954.6154
2023-04-27T05:01:00.499Z,954.6061
2023-04-27T05:02:02.360Z,954.6208
2023-04-27T05:03:04.013Z,954.6370
2023-04-27T05:04:05.675Z,954.6470
2023-04-27T05:05:07.130Z,954.6423
2023-04-27T05:06:08.781Z,954.6561
2023-04-27T05:07:12.016Z,954.6785
2023-04-27T05:08:15.125Z,954.6946
2023-04-27T05:09:13.906Z,954.7092
2023-04-27T05:10:15.254Z,954.7169
2023-04-27T05:11:16.958Z,954.7223
2023-04-27T05:12:18.520Z,954.7161
2023-04-27T05:13:20.248Z,954.7123
2023-04-27T05:14:21.849Z,954.7062
2023-04-27T05:15:23.483Z,954.6846
2023-04-27T05:16:25.170Z,954.6677
2023-04-27T05:17:26.824Z,954.6339
2023-04-27T05:18:28.450Z,954.6093
2023-04-27T05:19:30.157Z,954.5785
2023-04-27T05:20:32.645Z,954.5592
2023-04-27T05:21:33.351Z,954.5785
2023-04-27T05:22:35.040Z,954.5869
2023-04-27T05:23:37.109Z,954.5908
2023-04-27T05:24:38.651Z,954.5977
2023-04-27T05:25:39.967Z,954.6123
2023-04-27T05:26:41.601Z,954.6331
2023-04-27T05:27:43.263Z,954.6469
2023-04-27T05:28:44.914Z,954.6539
2023-04-27T05:29:46.602Z,954.6561
2023-04-27T05:30:48.222Z,954.6500
2023-04-27T05:31:49.883Z,954.6469
2023-04-27T05:32:51.492Z,954.6477
2023-04-27T05:33:53.136Z,954.6584
2023-04-27T05:34:54.803Z,954.6854
2023-04-27T05:35:56.483Z,954.7077
2023-04-27T05:36:58.125Z,954.7315
2023-04-27T05:38:00.687Z,954.7492
2023-04-27T05:39:01.408Z,954.7446
2023-04-27T05:40:03.107Z,954.7415
2023-04-27T05:41:05.081Z,954.7338
2023-04-27T05:42:06.363Z,954.7308
2023-04-27T05:43:07.930Z,954.7392
2023-04-27T05:44:09.609Z,954.7631
2023-04-27T05:45:11.208Z,954.7900
2023-04-27T05:46:13.033Z,954.7985
2023-04-27T05:47:16.169Z,954.8000
2023-04-27T05:48:16.208Z,954.8038
2023-04-27T05:49:17.811Z,954.8323
2023-04-27T05:50:19.506Z,954.8546
2023-04-27T05:51:21.107Z,954.8762
2023-04-27T05:52:22.760Z,954.8815
2023-04-27T05:53:24.417Z,954.8669
2023-04-27T05:54:26.018Z,954.8546
2023-04-27T05:55:27.737Z,954.8500
2023-04-27T05:56:30.221Z,954.8492
2023-04-27T05:57:31.109Z,954.8484
2023-04-27T05:58:32.633Z,954.8484
2023-04-27T05:59:34.293Z,954.8623
2023-04-27T06:00:36.131Z,954.8738
2023-04-27T06:01:37.725Z,954.8839
2023-04-27T06:02:39.631Z,954.8923
2023-04-27T06:03:41.937Z,954.9092
2023-04-27T06:04:42.627Z,954.9131
2023-04-27T06:05:44.290Z,954.9131
2023-04-27T06:06:46.329Z,954.9177
2023-04-27T06:07:47.623Z,954.9161
2023-04-27T06:08:49.194Z,954.9069
2023-04-27T06:09:50.974Z,954.9031
2023-04-27T06:10:52.484Z,954.8885
2023-04-27T06:11:54.254Z,954.8692
2023-04-27T06:12:55.862Z,954.8577
2023-04-27T06:13:57.521Z,954.8762
2023-04-27T06:14:59.161Z,954.8915
2023-04-27T06:16:00.833Z,954.9069
2023-04-27T06:17:03.443Z,954.9269
2023-04-27T06:18:05.114Z,954.9415
2023-04-27T06:19:05.732Z,954.9492
2023-04-27T06:20:08.380Z,954.9585
2023-04-27T06:21:09.058Z,954.9523
2023-04-27T06:22:10.710Z,954.9370
2023-04-27T06:23:12.300Z,954.9315
2023-04-27T06:24:14.935Z,954.9269
2023-04-27T06:25:15.622Z,954.9261
2023-04-27T06:26:18.208Z,954.9346
2023-04-27T06:27:18.835Z,954.9562
2023-04-27T06:28:20.625Z,954.9646
2023-04-27T06:29:22.176Z,954.9600
2023-04-27T06:30:23.896Z,954.9547
2023-04-27T06:31:25.547Z,954.9654
2023-04-27T06:32:27.170Z,954.9815
2023-04-27T06:33:28.795Z,955.0023
2023-04-27T06:34:30.457Z,955.0115
2023-04-27T06:35:32.314Z,955.0215
2023-04-27T06:36:33.688Z,955.0354
2023-04-27T06:37:35.310Z,955.0485
2023-04-27T06:38:37.092Z,955.0485
2023-04-27T06:39:38.667Z,955.0438
2023-04-27T06:40:40.360Z,955.0415
2023-04-27T06:41:41.916Z,955.0453
2023-04-27T06:42:43.606Z,955.0485
2023-04-27T06:43:45.816Z,955.0500
2023-04-27T06:44:47.396Z,955.0523
2023-04-27T06:45:48.610Z,955.0630
2023-04-27T06:46:50.157Z,955.0423
2023-04-27T06:47:52.376Z,955.0508
2023-04-27T06:48:53.418Z,955.0685
2023-04-27T06:49:55.168Z,955.0800
2023-04-27T06:50:57.356Z,955.0869
2023-04-27T06:51:58.402Z,955.0877
2023-04-27T06:53:00.141Z,955.0700
2023-04-27T06:54:01.712Z,955.0500
2023-04-27T06:55:03.395Z,955.0623
2023-04-27T06:56:05.000Z,955.0615
2023-04-27T06:57:06.708Z,955.0685
2023-04-27T06:58:09.243Z,955.0961
2023-04-27T06:59:10.038Z,955.1215
2023-04-27T07:00:12.476Z,955.1485
2023-04-27T07:01:13.410Z,955.1661
2023-04-27T07:02:14.938Z,955.1769
2023-04-27T07:03:16.770Z,955.1846
2023-04-27T07:04:18.260Z,955.1870
2023-04-27T07:05:20.864Z,955.1992
2023-04-27T07:06:21.411Z,955.2300
2023-04-27T07:07:23.156Z,955.2531
2023-04-27T07:08:24.959Z,955.2731
2023-04-27T07:09:27.716Z,955.2739
2023-04-27T07:10:28.053Z,955.2908
2023-04-27T07:11:29.760Z,955.2946
2023-04-27T07:12:31.471Z,955.2938
2023-04-27T07:13:33.025Z,955.2931
2023-04-27T07:14:34.692Z,955.2792
2023-04-27T07:15:36.287Z,955.2646
2023-04-27T07:16:38.132Z,955.2692
2023-04-27T07:17:39.655Z,955.2915
2023-04-27T07:18:43.328Z,955.3115
2023-04-27T07:19:42.912Z,955.3385
2023-04-27T07:20:44.495Z,955.3392
2023-04-27T07:21:46.290Z,955.3477
2023-04-27T07:22:47.754Z,955.3377
2023-04-27T07:23:49.944Z,955.3347
2023-04-27T07:24:51.129Z,955.3439
2023-04-27T07:25:52.889Z,955.3515
2023-04-27T07:26:54.456Z,955.3523
2023-04-27T07:27:56.094Z,955.3416
2023-04-27T07:28:58.387Z,955.3362
2023-04-27T07:29:59.409Z,955.3369
2023-04-27T07:31:00.997Z,955.3162
2023-04-27T07:32:02.768Z,955.3200
2023-04-27T07:33:04.282Z,955.3170
2023-04-27T07:34:05.948Z,955.3177
2023-04-27T07:35:07.610Z,955.3077
2023-04-27T07:36:10.281Z,955.2808
2023-04-27T07:37:10.840Z,955.2708
2023-04-27T07:38:12.549Z,955.2754
2023-04-27T07:39:14.310Z,955.2762
2023-04-27T07:40:15.895Z,955.2670
2023-04-27T07:41:17.484Z,955.2546
2023-04-27T07:42:19.189Z,955.2423
2023-04-27T07:43:20.711Z,955.2415
2023-04-27T07:44:22.873Z,955.2269
2023-04-27T07:45:24.063Z,955.2253
2023-04-27T07:46:25.936Z,955.2330
2023-04-27T07:47:28.507Z,955.2292
2023-04-27T07:48:29.047Z,955.2192
2023-04-27T07:49:30.606Z,955.1877
2023-04-27T07:50:32.308Z,955.1792
2023-04-27T07:51:33.982Z,955.1785
2023-04-27T07:52:35.679Z,955.1723
2023-04-27T07:53:37.220Z,955.1569
2023-04-27T07:54:38.861Z,955.1423
2023-04-27T07:55:40.540Z,955.1285
2023-04-27T07:56:42.274Z,955.1300
2023-04-27T07:57:43.879Z,955.1154
2023-04-27T07:58:45.507Z,955.1223
2023-04-27T07:59:47.088Z,955.1362
2023-04-27T08:00:48.793Z,955.1508
2023-04-27T08:01:50.454Z,955.1615
2023-04-27T08:02:52.351Z,955.1477
2023-04-27T08:03:53.992Z,955.1516
2023-04-27T08:04:55.684Z,955.1646
2023-04-27T08:05:57.465Z,955.1531
2023-04-27T08:06:59.004Z,955.1631
2023-04-27T08:08:00.610Z,955.1723
2023-04-27T08:09:01.998Z,955.1746
2023-04-27T08:10:03.592Z,955.1685
2023-04-27T08:11:05.278Z,955.1569
2023-04-27T08:12:06.928Z,955.1392
2023-04-27T08:13:08.624Z,955.1230
2023-04-27T08:14:10.205Z,955.1061
2023-04-27T08:15:11.827Z,955.1138
2023-04-27T08:16:13.536Z,955.0877
2023-04-27T08:17:15.150Z,955.0777
2023-04-27T08:18:16.887Z,955.1138
2023-04-27T08:19:18.492Z,955.1208
2023-04-27T08:20:20.078Z,955.1223
2023-04-27T08:21:21.767Z,955.1208
2023-04-27T08:22:23.518Z,955.1215
2023-04-27T08:23:25.105Z,955.1223
2023-04-27T08:24:26.718Z,955.1108
2023-04-27T08:25:28.378Z,955.1061
2023-04-27T08:26:29.975Z,955.0862
2023-04-27T08:27:31.725Z,955.0677
2023-04-27T08:28:33.322Z,955.0700
2023-04-27T08:29:35.099Z,955.0477
2023-04-27T08:30:37.224Z,955.0592
2023-04-27T08:31:38.395Z,955.0670
2023-04-27T08:32:39.939Z,955.0362
2023-04-27T08:33:41.822Z,955.0239
2023-04-27T08:34:43.191Z,955.0185
2023-04-27T08:35:44.855Z,955.0162
2023-04-27T08:36:46.536Z,955.0146
2023-04-27T08:37:48.221Z,955.0077
2023-04-27T08:38:49.816Z,955.0070
2023-04-27T08:39:51.500Z,955.0046
2023-04-27T08:40:53.096Z,955.0108
2023-04-27T08:41:54.773Z,955.0131
2023-04-27T08:42:56.464Z,955.0162
2023-04-27T08:43:59.116Z,955.0269
2023-04-27T08:44:59.689Z,955.0269
2023-04-27T08:46:01.420Z,955.0139
2023-04-27T08:47:02.978Z,955.0085
2023-04-27T08:48:04.785Z,955.0177
2023-04-27T08:49:06.483Z,955.0269
2023-04-27T08:50:07.945Z,955.0247
2023-04-27T08:51:09.680Z,955.0269
2023-04-27T08:52:11.320Z,955.0354
2023-04-27T08:53:12.968Z,955.0554
2023-04-27T08:54:14.571Z,955.0654
2023-04-27T08:55:16.917Z,955.0508
2023-04-27T08:56:17.826Z,955.0461
2023-04-27T08:57:19.551Z,955.0400
2023-04-27T08:58:21.184Z,955.0361
2023-04-27T08:59:22.874Z,955.0430
2023-04-27T09:00:24.493Z,955.0354
2023-04-27T09:01:26.184Z,955.0354
2023-04-27T09:02:27.784Z,955.0292
2023-04-27T09:03:29.524Z,955.0285
2023-04-27T09:04:31.097Z,955.0277
2023-04-27T09:05:32.766Z,955.0223
2023-04-27T09:06:34.376Z,955.0208
2023-04-27T09:07:35.997Z,955.0139
2023-04-27T09:08:37.604Z,955.0031
2023-04-27T09:09:39.245Z,954.9700
2023-04-27T09:10:40.972Z,954.9338
2023-04-27T09:11:42.595Z,954.9392
2023-04-27T09:12:44.249Z,954.9330
2023-04-27T09:13:45.842Z,954.9223
2023-04-27T09:14:47.573Z,954.8992
2023-04-27T09:15:49.269Z,954.8885
2023-04-27T09:16:50.897Z,954.8947
2023-04-27T09:17:52.436Z,954.9069
2023-04-27T09:18:54.126Z,954.8931
2023-04-27T09:19:55.805Z,954.9016
2023-04-27T09:20:57.487Z,954.9023
2023-04-27T09:21:59.067Z,954.8777
2023-04-27T09:23:00.691Z,954.8569
2023-04-27T09:24:02.378Z,954.8646
2023-04-27T09:25:04.115Z,954.8808
2023-04-27T09:26:05.726Z,954.8792
2023-04-27T09:27:07.373Z,954.8746
2023-04-27T09:28:09.022Z,954.8770
2023-04-27T09:29:10.664Z,954.8777
2023-04-27T09:30:12.321Z,954.8746
2023-04-27T09:31:13.964Z,954.8692
2023-04-27T09:32:16.791Z,954.8608
2023-04-27T09:33:18.238Z,954.8508
2023-04-27T09:34:18.898Z,954.8446
2023-04-27T09:35:20.568Z,954.8385
2023-04-27T09:36:22.224Z,954.8362
2023-04-27T09:37:23.796Z,954.8292
2023-04-27T09:38:25.493Z,954.8292
2023-04-27T09:39:27.104Z,954.8239
2023-04-27T09:40:29.319Z,954.8323
2023-04-27T09:41:30.610Z,954.8277
2023-04-27T09:42:32.285Z,954.8146
2023-04-27T09:43:33.809Z,954.8100
2023-04-27T09:44:35.371Z,954.7969
2023-04-27T09:45:37.315Z,954.7854
2023-04-27T09:46:38.715Z,954.7739
2023-04-27T09:47:40.493Z,954.7677
2023-04-27T09:48:42.726Z,954.7685
2023-04-27T09:49:43.687Z,954.7670
2023-04-27T09:50:46.254Z,954.7769
2023-04-27T09:51:47.085Z,954.7869
2023-04-27T09:52:48.730Z,954.7846
2023-04-27T09:53:50.300Z,954.7623
2023-04-27T09:54:51.966Z,954.7592
2023-04-27T09:55:53.604Z,954.7570
2023-04-27T09:56:55.286Z,954.7562
2023-04-27T09:57:56.886Z,954.7446
2023-04-27T09:58:59.247Z,954.7361
2023-04-27T10:00:00.227Z,954.7177
2023-04-27T10:01:01.870Z,954.7139
2023-04-27T10:02:17.099Z,954.6970
2023-04-27T10:03:05.282Z,954.6653
2023-04-27T10:04:08.157Z,954.6615
2023-04-27T10:05:08.592Z,954.6769
2023-04-27T10:06:10.221Z,954.6870
2023-04-27T10:07:11.793Z,954.6730
2023-04-27T10:08:13.583Z,954.6653
2023-04-27T10:09:15.423Z,954.6653
2023-04-27T10:10:16.889Z,954.6462
2023-04-27T10:11:18.455Z,954.6323
2023-04-27T10:12:20.109Z,954.6254
2023-04-27T10:13:21.783Z,954.6146
2023-04-27T10:14:23.441Z,954.6108
2023-04-27T10:15:25.134Z,954.6254
2023-04-27T10:16:26.722Z,954.6377
2023-04-27T10:17:28.381Z,954.6561
2023-04-27T10:18:30.102Z,954.6608
2023-04-27T10:19:31.733Z,954.6669
2023-04-27T10:20:33.301Z,954.6669
2023-04-27T10:21:34.977Z,954.6669
2023-04-27T10:22:36.632Z,954.6631
2023-04-27T10:23:38.270Z,954.6584
2023-04-27T10:24:40.381Z,954.6531
2023-04-27T10:25:41.507Z,954.6377
2023-04-27T10:26:43.830Z,954.6238
2023-04-27T10:27:45.798Z,954.6185
2023-04-27T10:28:46.598Z,954.6346
2023-04-27T10:29:48.222Z,954.6454
2023-04-27T10:30:49.917Z,954.6508
2023-04-27T10:31:51.492Z,954.6661
2023-04-27T10:32:53.205Z,954.6815
2023-04-27T10:33:54.811Z,954.6638
2023-04-27T10:34:57.420Z,954.6677
2023-04-27T10:35:58.099Z,954.6477
2023-04-27T10:36:59.696Z,954.6370
2023-04-27T10:38:01.425Z,954.6377
2023-04-27T10:39:03.079Z,954.6339
2023-04-27T10:40:08.339Z,954.6408
2023-04-27T10:41:06.305Z,954.6308
2023-04-27T10:42:07.999Z,954.6385
2023-04-27T10:43:09.607Z,954.6223
2023-04-27T10:44:11.362Z,954.6053
2023-04-27T10:45:12.963Z,954.5885
2023-04-27T10:46:14.678Z,954.5677
2023-04-27T10:47:16.248Z,954.5485
2023-04-27T10:48:17.947Z,954.5431
2023-04-27T10:49:19.620Z,954.5277
2023-04-27T10:50:21.309Z,954.5323
2023-04-27T10:51:22.871Z,954.5239
2023-04-27T10:52:24.493Z,954.5008
2023-04-27T10:53:26.200Z,954.5023
2023-04-27T10:54:27.838Z,954.4946
2023-04-27T10:55:29.561Z,954.4846
2023-04-27T10:56:31.162Z,954.4792
2023-04-27T10:57:32.827Z,954.4815
2023-04-27T10:58:45.254Z,954.4830
2023-04-27T10:59:36.156Z,954.4677
2023-04-27T11:00:37.760Z,954.4623
2023-04-27T11:01:39.514Z,954.4523
2023-04-27T11:02:41.095Z,954.4385
2023-04-27T11:03:42.802Z,954.4323
2023-04-27T11:04:44.448Z,954.4408
2023-04-27T11:05:46.425Z,954.4492
2023-04-27T11:06:47.727Z,954.4415
2023-04-27T11:07:49.350Z,954.4600
2023-04-27T11:08:50.993Z,954.4746
2023-04-27T11:09:52.711Z,954.4684
2023-04-27T11:10:54.306Z,954.4715
2023-04-27T11:11:55.973Z,954.4823
2023-04-27T11:12:57.575Z,954.4962
2023-04-27T11:13:59.334Z,954.5123
2023-04-27T11:15:01.012Z,954.4985
2023-04-27T11:16:02.628Z,954.4854
2023-04-27T11:17:04.264Z,954.4800
2023-04-27T11:18:05.931Z,954.4861
2023-04-27T11:19:07.500Z,954.4992
2023-04-27T11:20:09.433Z,954.5070
2023-04-27T11:21:10.874Z,954.5085
2023-04-27T11:22:12.595Z,954.5000
2023-04-27T11:23:14.116Z,954.4985
2023-04-27T11:24:15.792Z,954.5123
2023-04-27T11:25:17.929Z,954.5000
2023-04-27T11:26:19.201Z,954.4930
2023-04-27T11:27:20.790Z,954.4854
2023-04-27T11:28:22.421Z,954.4938
2023-04-27T11:29:24.024Z,954.4785
2023-04-27T11:30:25.937Z,954.4777
2023-04-27T11:31:28.438Z,954.4823
2023-04-27T11:32:29.057Z,954.4900
2023-04-27T11:33:30.673Z,954.4823
2023-04-27T11:34:32.342Z,954.4769
2023-04-27T11:35:33.979Z,954.4977
2023-04-27T11:36:35.692Z,954.4892
2023-04-27T11:37:37.382Z,954.4885
2023-04-27T11:38:38.966Z,954.5038
2023-04-27T11:39:40.602Z,954.5208
2023-04-27T11:40:42.360Z,954.5000
2023-04-27T11:41:44.040Z,954.4885
2023-04-27T11:42:45.558Z,954.4885
2023-04-27T11:43:47.327Z,954.5215
2023-04-27T11:44:48.912Z,954.5292
2023-04-27T11:45:51.456Z,954.5015
2023-04-27T11:46:52.365Z,954.4823
2023-04-27T11:47:54.011Z,954.4669
2023-04-27T11:48:55.620Z,954.4562
2023-04-27T11:49:57.204Z,954.4731
2023-04-27T11:50:58.943Z,954.4962
2023-04-27T11:52:00.589Z,954.5100
2023-04-27T11:53:02.225Z,954.4877
2023-04-27T11:54:03.846Z,954.4715
2023-04-27T11:55:05.510Z,954.4346
2023-04-27T11:56:07.167Z,954.4123
2023-04-27T11:57:08.859Z,954.4000
2023-04-27T11:58:10.425Z,954.3954
2023-04-27T11:59:12.204Z,954.3700
2023-04-27T12:00:13.795Z,954.3723
2023-04-27T12:01:21.856Z,954.3131
2023-04-27T12:02:17.157Z,954.2831
2023-04-27T12:03:18.882Z,954.2792
2023-04-27T12:04:20.798Z,954.2662